sensor_id;sensor_type;location;lat;lon;timestamp;pressure;altitude;pressure_sealevel;temperature;humidity
35577;BME280;21680;52.400;16.920;2023-08-01T00:01:56;99597.41;;;19.42;69.63
35577;BME280;21680;52.400;16.920;2023-08-01T00:04:21;99597.25;;;19.42;69.60
35577;BME280;21680;52.400;16.920;2023-08-01T00:06:47;99597.19;;;19.43;69.59
35577;BME280;21680;52.400;16.920;2023-08-01T00:09:12;99591.30;;;19.42;69.66
35577;BME280;21680;52.400;16.920;2023-08-01T00:11:37;99579.02;;;19.43;69.58
35577;BME280;21680;52.400;16.920;2023-08-01T00:14:02;99576.36;;;19.44;69.62
35577;BME280;21680;52.400;16.920;2023-08-01T00:16:28;99571.64;;;19.45;69.72
35577;BME280;21680;52.400;16.920;2023-08-01T00:18:53;99569.20;;;19.45;69.59
35577;BME280;21680;52.400;16.920;2023-08-01T00:21:18;99564.70;;;19.45;69.62
35577;BME280;21680;52.400;16.920;2023-08-01T00:23:43;99563.80;;;19.43;69.72
35577;BME280;21680;52.400;16.920;2023-08-01T00:26:09;99557.36;;;19.44;69.71
35577;BME280;21680;52.400;16.920;2023-08-01T00:28:34;99549.98;;;19.44;69.55
35577;BME280;21680;52.400;16.920;2023-08-01T00:31:06;99546.23;;;19.43;69.60
35577;BME280;21680;52.400;16.920;2023-08-01T00:33:32;99544.52;;;19.42;69.53
35577;BME280;21680;52.400;16.920;2023-08-01T00:35:57;99541.13;;;19.42;69.68
35577;BME280;21680;52.400;16.920;2023-08-01T00:38:23;99536.40;;;19.42;69.61
35577;BME280;21680;52.400;16.920;2023-08-01T00:40:48;99530.75;;;19.40;69.60
35577;BME280;21680;52.400;16.920;2023-08-01T00:43:13;99524.60;;;19.38;69.68
35577;BME280;21680;52.400;16.920;2023-08-01T00:45:39;99520.77;;;19.39;69.75
35577;BME280;21680;52.400;16.920;2023-08-01T00:48:04;99511.83;;;19.35;69.73
35577;BME280;21680;52.400;16.920;2023-08-01T00:50:29;99505.73;;;19.35;69.90
35577;BME280;21680;52.400;16.920;2023-08-01T00:52:55;99502.54;;;19.34;69.68
35577;BME280;21680;52.400;16.920;2023-08-01T00:55:22;99489.38;;;19.34;69.86
35577;BME280;21680;52.400;16.920;2023-08-01T00:57:48;99486.79;;;19.32;69.85
35577;BME280;21680;52.400;16.920;2023-08-01T01:00:13;99484.97;;;19.31;69.85
35577;BME280;21680;52.400;16.920;2023-08-01T01:02:39;99482.14;;;19.30;69.85
35577;BME280;21680;52.400;16.920;2023-08-01T01:05:05;99477.14;;;19.29;69.89
35577;BME280;21680;52.400;16.920;2023-08-01T01:07:31;99477.23;;;19.28;69.88
35577;BME280;21680;52.400;16.920;2023-08-01T01:09:58;99474.83;;;19.27;69.96
35577;BME280;21680;52.400;16.920;2023-08-01T01:12:23;99473.84;;;19.26;69.96
35577;BME280;21680;52.400;16.920;2023-08-01T01:14:48;99468.15;;;19.25;70.04
35577;BME280;21680;52.400;16.920;2023-08-01T01:17:13;99470.61;;;19.24;69.99
35577;BME280;21680;52.400;16.920;2023-08-01T01:19:39;99464.27;;;19.22;70.04
35577;BME280;21680;52.400;16.920;2023-08-01T01:22:06;99459.48;;;19.21;70.03
35577;BME280;21680;52.400;16.920;2023-08-01T01:24:33;99452.73;;;19.20;70.09
35577;BME280;21680;52.400;16.920;2023-08-01T01:27:00;99443.04;;;19.19;70.11
35577;BME280;21680;52.400;16.920;2023-08-01T01:29:29;99444.84;;;19.19;69.95
35577;BME280;21680;52.400;16.920;2023-08-01T01:31:55;99443.81;;;19.18;69.89
35577;BME280;21680;52.400;16.920;2023-08-01T01:34:21;99438.62;;;19.18;70.02
35577;BME280;21680;52.400;16.920;2023-08-01T01:36:46;99440.08;;;19.18;70.13
35577;BME280;21680;52.400;16.920;2023-08-01T01:39:11;99433.05;;;19.17;70.06
35577;BME280;21680;52.400;16.920;2023-08-01T01:41:36;99427.79;;;19.18;70.02
35577;BME280;21680;52.400;16.920;2023-08-01T01:44:02;99421.98;;;19.18;69.97
35577;BME280;21680;52.400;16.920;2023-08-01T01:46:27;99412.52;;;19.18;69.99
35577;BME280;21680;52.400;16.920;2023-08-01T01:48:52;99404.94;;;19.18;69.94
35577;BME280;21680;52.400;16.920;2023-08-01T01:51:19;99397.64;;;19.18;69.93
35577;BME280;21680;52.400;16.920;2023-08-01T01:53:45;99390.75;;;19.18;69.87
35577;BME280;21680;52.400;16.920;2023-08-01T01:56:10;99386.52;;;19.19;70.14
35577;BME280;21680;52.400;16.920;2023-08-01T01:58:35;99378.16;;;19.19;70.08
35577;BME280;21680;52.400;16.920;2023-08-01T02:01:00;99379.71;;;19.18;70.03
35577;BME280;21680;52.400;16.920;2023-08-01T02:03:26;99377.46;;;19.17;69.78
35577;BME280;21680;52.400;16.920;2023-08-01T02:05:51;99374.02;;;19.16;69.93
35577;BME280;21680;52.400;16.920;2023-08-01T02:08:16;99371.52;;;19.15;69.90
35577;BME280;21680;52.400;16.920;2023-08-01T02:10:41;99373.10;;;19.13;69.90
35577;BME280;21680;52.400;16.920;2023-08-01T02:13:07;99370.82;;;19.13;70.06
35577;BME280;21680;52.400;16.920;2023-08-01T02:15:34;99367.45;;;19.12;69.95
35577;BME280;21680;52.400;16.920;2023-08-01T02:17:59;99366.66;;;19.11;69.95
35577;BME280;21680;52.400;16.920;2023-08-01T02:20:24;99366.98;;;19.09;70.06
35577;BME280;21680;52.400;16.920;2023-08-01T02:22:50;99362.48;;;19.07;70.07
35577;BME280;21680;52.400;16.920;2023-08-01T02:25:15;99361.42;;;19.05;70.00
35577;BME280;21680;52.400;16.920;2023-08-01T02:27:40;99356.52;;;19.04;70.05
35577;BME280;21680;52.400;16.920;2023-08-01T02:30:06;99355.55;;;19.02;70.19
35577;BME280;21680;52.400;16.920;2023-08-01T02:32:32;99356.75;;;18.99;70.21
35577;BME280;21680;52.400;16.920;2023-08-01T02:34:57;99353.04;;;18.97;70.18
35577;BME280;21680;52.400;16.920;2023-08-01T02:37:22;99353.27;;;18.95;70.30
35577;BME280;21680;52.400;16.920;2023-08-01T02:39:47;99350.19;;;18.91;70.35
35577;BME280;21680;52.400;16.920;2023-08-01T02:42:12;99345.92;;;18.86;70.31
35577;BME280;21680;52.400;16.920;2023-08-01T02:44:38;99347.63;;;18.82;70.48
35577;BME280;21680;52.400;16.920;2023-08-01T02:47:03;99349.52;;;18.77;70.63
35577;BME280;21680;52.400;16.920;2023-08-01T02:49:29;99348.61;;;18.74;70.71
35577;BME280;21680;52.400;16.920;2023-08-01T02:51:54;99348.34;;;18.71;70.83
35577;BME280;21680;52.400;16.920;2023-08-01T02:54:19;99350.73;;;18.67;70.81
35577;BME280;21680;52.400;16.920;2023-08-01T02:56:44;99348.20;;;18.63;70.97
35577;BME280;21680;52.400;16.920;2023-08-01T02:59:10;99347.52;;;18.61;71.04
35577;BME280;21680;52.400;16.920;2023-08-01T03:01:37;99346.05;;;18.59;71.20
35577;BME280;21680;52.400;16.920;2023-08-01T03:04:03;99344.39;;;18.58;71.35
35577;BME280;21680;52.400;16.920;2023-08-01T03:06:29;99338.23;;;18.56;71.38
35577;BME280;21680;52.400;16.920;2023-08-01T03:08:54;99334.23;;;18.54;71.54
35577;BME280;21680;52.400;16.920;2023-08-01T03:11:20;99328.27;;;18.54;71.42
35577;BME280;21680;52.400;16.920;2023-08-01T03:13:45;99323.08;;;18.51;71.62
35577;BME280;21680;52.400;16.920;2023-08-01T03:16:10;99323.68;;;18.51;71.71
35577;BME280;21680;52.400;16.920;2023-08-01T03:18:35;99319.95;;;18.50;71.87
35577;BME280;21680;52.400;16.920;2023-08-01T03:21:01;99315.74;;;18.51;71.84
35577;BME280;21680;52.400;16.920;2023-08-01T03:23:29;99314.95;;;18.49;71.92
35577;BME280;21680;52.400;16.920;2023-08-01T03:25:54;99309.15;;;18.47;71.98
35577;BME280;21680;52.400;16.920;2023-08-01T03:28:19;99307.88;;;18.46;72.08
35577;BME280;21680;52.400;16.920;2023-08-01T03:30:45;99310.77;;;18.44;72.18
35577;BME280;21680;52.400;16.920;2023-08-01T03:33:10;99311.50;;;18.40;72.24
35577;BME280;21680;52.400;16.920;2023-08-01T03:35:35;99310.40;;;18.37;72.32
35577;BME280;21680;52.400;16.920;2023-08-01T03:38:01;99309.27;;;18.34;72.33
35577;BME280;21680;52.400;16.920;2023-08-01T03:40:26;99307.67;;;18.31;72.70
35577;BME280;21680;52.400;16.920;2023-08-01T03:42:51;99306.09;;;18.25;72.73
35577;BME280;21680;52.400;16.920;2023-08-01T03:45:16;99304.61;;;18.21;72.83
35577;BME280;21680;52.400;16.920;2023-08-01T03:47:42;99305.86;;;18.17;73.00
35577;BME280;21680;52.400;16.920;2023-08-01T03:50:07;99306.20;;;18.13;73.06
35577;BME280;21680;52.400;16.920;2023-08-01T03:52:33;99310.71;;;18.10;73.26
35577;BME280;21680;52.400;16.920;2023-08-01T03:54:58;99307.05;;;18.03;73.55
35577;BME280;21680;52.400;16.920;2023-08-01T03:57:23;99307.08;;;17.93;73.53
35577;BME280;21680;52.400;16.920;2023-08-01T03:59:48;99310.65;;;17.84;74.01
35577;BME280;21680;52.400;16.920;2023-08-01T04:02:14;99312.17;;;17.77;73.96
35577;BME280;21680;52.400;16.920;2023-08-01T04:04:39;99313.04;;;17.68;74.17
35577;BME280;21680;52.400;16.920;2023-08-01T04:07:04;99308.31;;;17.59;74.42
35577;BME280;21680;52.400;16.920;2023-08-01T04:09:29;99308.48;;;17.49;74.70
35577;BME280;21680;52.400;16.920;2023-08-01T04:11:55;99311.53;;;17.40;75.15
35577;BME280;21680;52.400;16.920;2023-08-01T04:14:20;99308.34;;;17.30;75.40
35577;BME280;21680;52.400;16.920;2023-08-01T04:16:45;99306.64;;;17.18;75.74
35577;BME280;21680;52.400;16.920;2023-08-01T04:19:10;99306.77;;;17.07;76.06
35577;BME280;21680;52.400;16.920;2023-08-01T04:21:36;99306.24;;;16.97;76.33
35577;BME280;21680;52.400;16.920;2023-08-01T04:24:01;99300.55;;;16.88;76.87
35577;BME280;21680;52.400;16.920;2023-08-01T04:26:26;99296.55;;;16.81;77.05
35577;BME280;21680;52.400;16.920;2023-08-01T04:28:51;99292.29;;;16.78;77.49
35577;BME280;21680;52.400;16.920;2023-08-01T04:31:17;99290.98;;;16.75;77.46
35577;BME280;21680;52.400;16.920;2023-08-01T04:33:43;99289.03;;;16.72;78.11
35577;BME280;21680;52.400;16.920;2023-08-01T04:36:08;99283.92;;;16.69;78.35
35577;BME280;21680;52.400;16.920;2023-08-01T04:38:33;99278.05;;;16.68;78.56
35577;BME280;21680;52.400;16.920;2023-08-01T04:40:59;99277.26;;;16.69;78.86
35577;BME280;21680;52.400;16.920;2023-08-01T04:43:25;99277.09;;;16.71;79.02
35577;BME280;21680;52.400;16.920;2023-08-01T04:45:50;99276.50;;;16.72;79.47
35577;BME280;21680;52.400;16.920;2023-08-01T04:48:16;99270.09;;;16.72;79.64
35577;BME280;21680;52.400;16.920;2023-08-01T04:50:41;99268.67;;;16.74;79.81
35577;BME280;21680;52.400;16.920;2023-08-01T04:53:06;99267.02;;;16.76;79.97
35577;BME280;21680;52.400;16.920;2023-08-01T04:55:32;99266.04;;;16.77;80.20
35577;BME280;21680;52.400;16.920;2023-08-01T04:57:57;99262.04;;;16.77;80.41
35577;BME280;21680;52.400;16.920;2023-08-01T05:00:23;99257.09;;;16.77;80.61
35577;BME280;21680;52.400;16.920;2023-08-01T05:02:48;99247.63;;;16.77;80.83
35577;BME280;21680;52.400;16.920;2023-08-01T05:05:14;99238.14;;;16.80;81.40
35577;BME280;21680;52.400;16.920;2023-08-01T05:07:41;99236.36;;;16.86;81.66
35577;BME280;21680;52.400;16.920;2023-08-01T05:10:07;99235.54;;;16.91;81.79
35577;BME280;21680;52.400;16.920;2023-08-01T05:12:32;99241.13;;;16.95;81.96
35577;BME280;21680;52.400;16.920;2023-08-01T05:14:57;99238.20;;;16.98;82.07
35577;BME280;21680;52.400;16.920;2023-08-01T05:17:23;99232.44;;;16.97;82.23
35577;BME280;21680;52.400;16.920;2023-08-01T05:19:48;99226.20;;;16.98;82.47
35577;BME280;21680;52.400;16.920;2023-08-01T05:22:13;99224.35;;;17.01;82.66
35577;BME280;21680;52.400;16.920;2023-08-01T05:24:38;99231.13;;;17.03;82.85
35577;BME280;21680;52.400;16.920;2023-08-01T05:27:04;99230.63;;;17.07;83.05
35577;BME280;21680;52.400;16.920;2023-08-01T05:29:30;99230.14;;;17.10;83.40
35577;BME280;21680;52.400;16.920;2023-08-01T05:31:55;99226.23;;;17.12;83.47
35577;BME280;21680;52.400;16.920;2023-08-01T05:34:20;99222.96;;;17.14;83.57
35577;BME280;21680;52.400;16.920;2023-08-01T05:36:45;99221.08;;;17.16;83.77
35577;BME280;21680;52.400;16.920;2023-08-01T05:39:10;99223.36;;;17.19;83.82
35577;BME280;21680;52.400;16.920;2023-08-01T05:41:36;99217.89;;;17.20;84.12
35577;BME280;21680;52.400;16.920;2023-08-01T05:44:02;99215.61;;;17.21;84.27
35577;BME280;21680;52.400;16.920;2023-08-01T05:46:27;99213.64;;;17.21;84.64
35577;BME280;21680;52.400;16.920;2023-08-01T05:48:53;99211.67;;;17.21;85.02
35577;BME280;21680;52.400;16.920;2023-08-01T05:51:18;99210.30;;;17.22;84.97
35577;BME280;21680;52.400;16.920;2023-08-01T05:53:43;99209.93;;;17.22;85.05
35577;BME280;21680;52.400;16.920;2023-08-01T05:56:08;99214.27;;;17.24;85.26
35577;BME280;21680;52.400;16.920;2023-08-01T05:58:33;99211.04;;;17.27;85.44
35577;BME280;21680;52.400;16.920;2023-08-01T06:00:59;99210.19;;;17.31;85.58
35577;BME280;21680;52.400;16.920;2023-08-01T06:03:24;99211.02;;;17.30;85.74
35577;BME280;21680;52.400;16.920;2023-08-01T06:05:50;99209.73;;;17.30;85.86
35577;BME280;21680;52.400;16.920;2023-08-01T06:08:15;99206.50;;;17.32;86.17
35577;BME280;21680;52.400;16.920;2023-08-01T06:10:44;99208.30;;;17.32;86.33
35577;BME280;21680;52.400;16.920;2023-08-01T06:13:09;99210.77;;;17.32;86.35
35577;BME280;21680;52.400;16.920;2023-08-01T06:15:34;99202.77;;;17.33;86.60
35577;BME280;21680;52.400;16.920;2023-08-01T06:17:59;99199.73;;;17.36;86.74
35577;BME280;21680;52.400;16.920;2023-08-01T06:20:25;99199.91;;;17.40;86.97
35577;BME280;21680;52.400;16.920;2023-08-01T06:22:50;99192.15;;;17.44;87.04
35577;BME280;21680;52.400;16.920;2023-08-01T06:25:16;99185.27;;;17.48;87.22
35577;BME280;21680;52.400;16.920;2023-08-01T06:27:41;99184.00;;;17.51;87.25
35577;BME280;21680;52.400;16.920;2023-08-01T06:30:07;99182.09;;;17.52;87.20
35577;BME280;21680;52.400;16.920;2023-08-01T06:32:32;99175.98;;;17.50;87.36
35577;BME280;21680;52.400;16.920;2023-08-01T06:34:57;99176.16;;;17.48;87.43
35577;BME280;21680;52.400;16.920;2023-08-01T06:37:23;99178.48;;;17.49;87.59
35577;BME280;21680;52.400;16.920;2023-08-01T06:39:48;99176.77;;;17.48;87.43
35577;BME280;21680;52.400;16.920;2023-08-01T06:42:13;99173.75;;;17.45;87.53
35577;BME280;21680;52.400;16.920;2023-08-01T06:44:39;99173.79;;;17.45;87.64
35577;BME280;21680;52.400;16.920;2023-08-01T06:47:05;99170.79;;;17.44;87.71
35577;BME280;21680;52.400;16.920;2023-08-01T06:49:30;99168.28;;;17.44;87.79
35577;BME280;21680;52.400;16.920;2023-08-01T06:51:55;99160.20;;;17.47;87.98
35577;BME280;21680;52.400;16.920;2023-08-01T06:54:21;99157.80;;;17.51;87.97
35577;BME280;21680;52.400;16.920;2023-08-01T06:56:46;99157.11;;;17.53;87.96
35577;BME280;21680;52.400;16.920;2023-08-01T06:59:14;99153.65;;;17.55;88.21
35577;BME280;21680;52.400;16.920;2023-08-01T07:01:41;99152.55;;;17.59;88.23
35577;BME280;21680;52.400;16.920;2023-08-01T07:04:09;99152.19;;;17.65;88.29
35577;BME280;21680;52.400;16.920;2023-08-01T07:06:34;99151.60;;;17.73;88.43
35577;BME280;21680;52.400;16.920;2023-08-01T07:08:59;99148.93;;;17.84;88.52
35577;BME280;21680;52.400;16.920;2023-08-01T07:11:24;99150.71;;;17.95;88.63
35577;BME280;21680;52.400;16.920;2023-08-01T07:13:50;99146.65;;;18.09;88.79
35577;BME280;21680;52.400;16.920;2023-08-01T07:16:15;99143.13;;;18.19;88.64
35577;BME280;21680;52.400;16.920;2023-08-01T07:18:40;99141.71;;;18.24;88.70
35577;BME280;21680;52.400;16.920;2023-08-01T07:21:05;99139.63;;;18.28;88.80
35577;BME280;21680;52.400;16.920;2023-08-01T07:23:33;99140.05;;;18.33;88.83
35577;BME280;21680;52.400;16.920;2023-08-01T07:25:58;99133.77;;;18.38;88.91
35577;BME280;21680;52.400;16.920;2023-08-01T07:28:24;99128.24;;;18.44;88.79
35577;BME280;21680;52.400;16.920;2023-08-01T07:30:58;99127.61;;;18.49;88.81
35577;BME280;21680;52.400;16.920;2023-08-01T07:33:23;99128.60;;;18.52;88.75
35577;BME280;21680;52.400;16.920;2023-08-01T07:35:48;99120.29;;;18.55;88.60
35577;BME280;21680;52.400;16.920;2023-08-01T07:38:14;99119.67;;;18.58;88.65
35577;BME280;21680;52.400;16.920;2023-08-01T07:40:39;99116.48;;;18.63;88.62
35577;BME280;21680;52.400;16.920;2023-08-01T07:43:04;99115.89;;;18.70;88.82
35577;BME280;21680;52.400;16.920;2023-08-01T07:45:33;99112.71;;;18.75;88.63
35577;BME280;21680;52.400;16.920;2023-08-01T07:47:58;99109.55;;;18.77;88.53
35577;BME280;21680;52.400;16.920;2023-08-01T07:50:23;99112.63;;;18.81;88.46
35577;BME280;21680;52.400;16.920;2023-08-01T07:52:49;99108.60;;;18.81;88.34
35577;BME280;21680;52.400;16.920;2023-08-01T07:55:14;99109.55;;;18.83;88.39
35577;BME280;21680;52.400;16.920;2023-08-01T07:57:39;99112.16;;;18.86;88.37
35577;BME280;21680;52.400;16.920;2023-08-01T08:00:05;99106.15;;;18.89;88.10
35577;BME280;21680;52.400;16.920;2023-08-01T08:02:31;99107.50;;;18.89;87.97
35577;BME280;21680;52.400;16.920;2023-08-01T08:04:56;99105.41;;;18.86;88.05
35577;BME280;21680;52.400;16.920;2023-08-01T08:07:21;99103.50;;;18.85;87.86
35577;BME280;21680;52.400;16.920;2023-08-01T08:09:46;99095.41;;;18.87;87.64
35577;BME280;21680;52.400;16.920;2023-08-01T08:12:12;99091.21;;;18.89;87.85
35577;BME280;21680;52.400;16.920;2023-08-01T08:14:37;99090.16;;;18.92;87.76
35577;BME280;21680;52.400;16.920;2023-08-01T08:17:03;99087.67;;;18.95;87.75
35577;BME280;21680;52.400;16.920;2023-08-01T08:19:29;99085.96;;;18.98;87.56
35577;BME280;21680;52.400;16.920;2023-08-01T08:21:54;99081.15;;;18.98;87.37
35577;BME280;21680;52.400;16.920;2023-08-01T08:24:19;99077.31;;;18.99;87.42
35577;BME280;21680;52.400;16.920;2023-08-01T08:26:44;99077.28;;;19.04;87.51
35577;BME280;21680;52.400;16.920;2023-08-01T08:29:10;99074.95;;;19.09;87.39
35577;BME280;21680;52.400;16.920;2023-08-01T08:31:36;99073.44;;;19.11;87.12
35577;BME280;21680;52.400;16.920;2023-08-01T08:34:01;99066.27;;;19.11;87.11
35577;BME280;21680;52.400;16.920;2023-08-01T08:36:26;99063.20;;;19.12;87.18
35577;BME280;21680;52.400;16.920;2023-08-01T08:38:52;99060.52;;;19.12;87.14
35577;BME280;21680;52.400;16.920;2023-08-01T08:41:21;99058.48;;;19.13;86.94
35577;BME280;21680;52.400;16.920;2023-08-01T08:43:48;99056.55;;;19.14;86.92
35577;BME280;21680;52.400;16.920;2023-08-01T08:46:15;99055.90;;;19.15;86.86
35577;BME280;21680;52.400;16.920;2023-08-01T08:48:41;99050.66;;;19.18;86.91
35577;BME280;21680;52.400;16.920;2023-08-01T08:51:07;99049.73;;;19.20;86.77
35577;BME280;21680;52.400;16.920;2023-08-01T08:53:34;99046.63;;;19.19;86.72
35577;BME280;21680;52.400;16.920;2023-08-01T08:56:00;99046.94;;;19.19;86.72
35577;BME280;21680;52.400;16.920;2023-08-01T08:58:26;99043.70;;;19.17;86.40
35577;BME280;21680;52.400;16.920;2023-08-01T09:00:51;99045.26;;;19.17;86.55
35577;BME280;21680;52.400;16.920;2023-08-01T09:03:16;99046.88;;;19.16;86.45
35577;BME280;21680;52.400;16.920;2023-08-01T09:05:49;99045.59;;;19.15;86.28
35577;BME280;21680;52.400;16.920;2023-08-01T09:08:18;99038.23;;;19.07;86.30
35577;BME280;21680;52.400;16.920;2023-08-01T09:10:45;99035.67;;;18.99;86.24
35577;BME280;21680;52.400;16.920;2023-08-01T09:13:11;99029.02;;;18.93;86.25
35577;BME280;21680;52.400;16.920;2023-08-01T09:15:36;99032.37;;;18.94;86.57
35577;BME280;21680;52.400;16.920;2023-08-01T09:18:06;99026.36;;;18.99;86.53
35577;BME280;21680;52.400;16.920;2023-08-01T09:20:40;99021.58;;;18.99;86.33
35577;BME280;21680;52.400;16.920;2023-08-01T09:23:08;99019.90;;;18.97;86.39
35577;BME280;21680;52.400;16.920;2023-08-01T09:25:35;99013.97;;;18.97;86.33
35577;BME280;21680;52.400;16.920;2023-08-01T09:28:00;99011.02;;;18.97;86.31
35577;BME280;21680;52.400;16.920;2023-08-01T09:30:28;99005.58;;;18.97;86.32
35577;BME280;21680;52.400;16.920;2023-08-01T09:32:55;99005.05;;;18.99;86.43
35577;BME280;21680;52.400;16.920;2023-08-01T09:35:21;99005.44;;;19.00;86.30
35577;BME280;21680;52.400;16.920;2023-08-01T09:37:47;99010.46;;;18.96;86.35
35577;BME280;21680;52.400;16.920;2023-08-01T09:40:14;99014.92;;;18.84;86.09
35577;BME280;21680;52.400;16.920;2023-08-01T09:42:44;99016.60;;;18.68;86.56
35577;BME280;21680;52.400;16.920;2023-08-01T09:45:17;99014.14;;;18.49;86.61
35577;BME280;21680;52.400;16.920;2023-08-01T09:47:44;99009.41;;;18.36;87.01
35577;BME280;21680;52.400;16.920;2023-08-01T09:50:10;99014.52;;;18.25;87.30
35577;BME280;21680;52.400;16.920;2023-08-01T09:52:36;99010.50;;;18.13;87.28
35577;BME280;21680;52.400;16.920;2023-08-01T09:55:02;99006.52;;;18.00;87.62
35577;BME280;21680;52.400;16.920;2023-08-01T09:57:29;99001.59;;;17.90;87.93
35577;BME280;21680;52.400;16.920;2023-08-01T09:59:57;98999.86;;;17.80;88.15
35577;BME280;21680;52.400;16.920;2023-08-01T10:02:24;98999.58;;;17.70;88.39
35577;BME280;21680;52.400;16.920;2023-08-01T10:04:57;98998.36;;;17.59;88.52
35577;BME280;21680;52.400;16.920;2023-08-01T10:07:26;98991.59;;;17.40;88.97
35577;BME280;21680;52.400;16.920;2023-08-01T10:09:54;98983.94;;;17.27;89.74
35577;BME280;21680;52.400;16.920;2023-08-01T10:12:22;98985.59;;;17.19;90.18
35577;BME280;21680;52.400;16.920;2023-08-01T10:14:47;98989.91;;;17.16;90.76
35577;BME280;21680;52.400;16.920;2023-08-01T10:17:14;98982.91;;;17.13;91.17
35577;BME280;21680;52.400;16.920;2023-08-01T10:19:41;98981.70;;;17.15;91.68
35577;BME280;21680;52.400;16.920;2023-08-01T10:22:07;98979.24;;;17.18;91.85
35577;BME280;21680;52.400;16.920;2023-08-01T10:24:34;98970.84;;;17.23;92.15
35577;BME280;21680;52.400;16.920;2023-08-01T10:27:19;98966.77;;;17.27;92.40
35577;BME280;21680;52.400;16.920;2023-08-01T10:29:56;98962.83;;;17.31;92.72
35577;BME280;21680;52.400;16.920;2023-08-01T10:32:28;98951.98;;;17.35;93.46
35577;BME280;21680;52.400;16.920;2023-08-01T10:34:54;98950.20;;;17.36;93.19
35577;BME280;21680;52.400;16.920;2023-08-01T10:37:19;98949.16;;;17.37;93.37
35577;BME280;21680;52.400;16.920;2023-08-01T10:39:45;98943.91;;;17.40;93.67
35577;BME280;21680;52.400;16.920;2023-08-01T10:42:20;98941.44;;;17.43;94.08
35577;BME280;21680;52.400;16.920;2023-08-01T10:44:46;98937.09;;;17.44;94.32
35577;BME280;21680;52.400;16.920;2023-08-01T10:47:11;98933.84;;;17.50;94.60
35577;BME280;21680;52.400;16.920;2023-08-01T10:49:39;98930.39;;;17.56;94.80
35577;BME280;21680;52.400;16.920;2023-08-01T10:52:21;98927.37;;;17.59;95.03
35577;BME280;21680;52.400;16.920;2023-08-01T10:55:02;98927.40;;;17.66;95.24
35577;BME280;21680;52.400;16.920;2023-08-01T10:57:29;98926.95;;;17.74;95.27
35577;BME280;21680;52.400;16.920;2023-08-01T10:59:56;98928.76;;;17.85;95.52
35577;BME280;21680;52.400;16.920;2023-08-01T11:02:27;98921.63;;;18.01;95.81
35577;BME280;21680;52.400;16.920;2023-08-01T11:05:00;98918.48;;;18.17;95.85
35577;BME280;21680;52.400;16.920;2023-08-01T11:07:26;98910.16;;;18.32;96.28
35577;BME280;21680;52.400;16.920;2023-08-01T11:10:31;98901.42;;;18.46;96.49
35577;BME280;21680;52.400;16.920;2023-08-01T11:12:57;98901.04;;;18.50;96.13
35577;BME280;21680;52.400;16.920;2023-08-01T11:15:23;98900.04;;;18.47;96.15
35577;BME280;21680;52.400;16.920;2023-08-01T11:17:53;98893.38;;;18.49;96.45
35577;BME280;21680;52.400;16.920;2023-08-01T11:20:21;98891.95;;;18.56;96.88
35577;BME280;21680;52.400;16.920;2023-08-01T11:22:55;98885.19;;;18.65;97.11
35577;BME280;21680;52.400;16.920;2023-08-01T11:25:35;98880.98;;;18.62;96.62
35577;BME280;21680;52.400;16.920;2023-08-01T11:28:09;98880.52;;;18.60;96.88
35577;BME280;21680;52.400;16.920;2023-08-01T11:30:35;98871.95;;;18.64;97.25
35577;BME280;21680;52.400;16.920;2023-08-01T11:33:01;98867.46;;;18.58;96.90
35577;BME280;21680;52.400;16.920;2023-08-01T11:35:28;98866.55;;;18.60;97.20
35577;BME280;21680;52.400;16.920;2023-08-01T11:37:54;98870.15;;;18.62;97.29
35577;BME280;21680;52.400;16.920;2023-08-01T11:40:19;98861.48;;;18.58;97.20
35577;BME280;21680;52.400;16.920;2023-08-01T11:42:49;98853.06;;;18.50;97.24
35577;BME280;21680;52.400;16.920;2023-08-01T11:45:20;98851.84;;;18.41;96.89
35577;BME280;21680;52.400;16.920;2023-08-01T11:47:46;98887.45;;;18.28;97.03
35577;BME280;21680;52.400;16.920;2023-08-01T11:50:12;98923.66;;;18.01;97.46
35577;BME280;21680;52.400;16.920;2023-08-01T11:52:37;98921.18;;;17.50;97.76
35577;BME280;21680;52.400;16.920;2023-08-01T11:55:03;98922.03;;;17.03;99.05
35577;BME280;21680;52.400;16.920;2023-08-01T11:57:28;98920.20;;;16.76;99.52
35577;BME280;21680;52.400;16.920;2023-08-01T11:59:55;98907.80;;;16.50;99.47
35577;BME280;21680;52.400;16.920;2023-08-01T12:02:25;98899.08;;;16.42;99.73
35577;BME280;21680;52.400;16.920;2023-08-01T12:04:52;98890.46;;;16.38;99.92
35577;BME280;21680;52.400;16.920;2023-08-01T12:07:18;98889.38;;;16.38;100.00
35577;BME280;21680;52.400;16.920;2023-08-01T12:09:59;98893.05;;;16.41;100.00
35577;BME280;21680;52.400;16.920;2023-08-01T12:12:28;98898.98;;;16.43;100.00
35577;BME280;21680;52.400;16.920;2023-08-01T12:14:54;98899.88;;;16.43;100.00
35577;BME280;21680;52.400;16.920;2023-08-01T12:17:19;98903.17;;;16.42;100.00
35577;BME280;21680;52.400;16.920;2023-08-01T12:19:45;98898.23;;;16.41;100.00
35577;BME280;21680;52.400;16.920;2023-08-01T12:22:11;98893.67;;;16.44;100.00
35577;BME280;21680;52.400;16.920;2023-08-01T12:24:36;98892.09;;;16.49;100.00
35577;BME280;21680;52.400;16.920;2023-08-01T12:27:07;98883.77;;;16.53;100.00
35577;BME280;21680;52.400;16.920;2023-08-01T12:29:33;98885.34;;;16.59;100.00
35577;BME280;21680;52.400;16.920;2023-08-01T12:31:58;98885.15;;;16.75;100.00
35577;BME280;21680;52.400;16.920;2023-08-01T12:34:23;98888.02;;;16.99;100.00
35577;BME280;21680;52.400;16.920;2023-08-01T12:36:48;98894.71;;;17.13;100.00
35577;BME280;21680;52.400;16.920;2023-08-01T12:39:14;98902.73;;;17.23;100.00
35577;BME280;21680;52.400;16.920;2023-08-01T12:41:39;98899.95;;;17.44;100.00
35577;BME280;21680;52.400;16.920;2023-08-01T12:44:04;98898.77;;;17.70;100.00
35577;BME280;21680;52.400;16.920;2023-08-01T12:46:30;98888.33;;;17.98;100.00